Time;durP1;ratioP1;P1;durP2;ratioP2;P2;SDS_P1;SDS_P2;PMS_P1;PMS_P2;Temp;Humidity;BMP_temperature;BMP_pressure;BME280_temperature;BME280_humidity;BME280_pressure;Samples;Min_cycle;Max_cycle;Signal;HPM_P1;HPM_P2
2021/03/25 04:13:50;;;;;;;3.75;0.73;;;3.90;91.50;;;;;;5092635;28;20052;-67
2021/03/25 04:16:22;;;;;;;1.75;0.50;;;3.90;91.80;;;;;;5081717;28;20036;-67
2021/03/25 04:18:49;;;;;;;2.88;0.75;;;3.90;91.90;;;;;;5093079;28;20106;-67
2021/03/25 04:21:26;;;;;;;1.65;0.65;;;3.80;91.90;;;;;;5093494;28;20089;-67
2021/03/25 04:23:55;;;;;;;1.08;0.55;;;3.80;92.60;;;;;;5093721;28;20031;-67
2021/03/25 04:26:38;;;;;;;3.30;0.63;;;3.80;92.70;;;;;;5093313;28;20073;-67
2021/03/25 04:29:35;;;;;;;3.42;0.70;;;3.80;92.50;;;;;;5093518;28;20024;-67
2021/03/25 04:32:02;;;;;;;1.58;0.73;;;3.80;92.30;;;;;;5070133;28;20518;-67
2021/03/25 04:34:27;;;;;;;4.63;0.63;;;3.80;92.40;;;;;;5092929;28;20032;-67
2021/03/25 04:36:56;;;;;;;2.55;0.80;;;3.80;92.50;;;;;;5092902;28;20030;-67
2021/03/25 04:39:22;;;;;;;2.22;0.70;;;3.70;92.80;;;;;;5092944;28;20580;-68
2021/03/25 04:41:48;;;;;;;3.03;0.82;;;3.70;93.10;;;;;;5093416;28;20028;-68
2021/03/25 04:44:34;;;;;;;2.55;0.70;;;3.70;93.30;;;;;;5093001;28;20020;-67
2021/03/25 04:47:23;;;;;;;3.08;0.70;;;3.70;93.60;;;;;;5078703;28;20472;-69
2021/03/25 04:49:51;;;;;;;0.90;0.60;;;3.70;93.80;;;;;;5092610;28;20040;-67
2021/03/25 04:52:24;;;;;;;2.17;0.70;;;3.60;93.60;;;;;;5092707;28;20016;-67
2021/03/25 04:54:51;;;;;;;1.60;0.47;;;3.60;93.80;;;;;;5074714;28;20028;-66
2021/03/25 04:57:27;;;;;;;0.88;0.60;;;3.60;94.00;;;;;;5078543;28;20036;-67
2021/03/25 04:59:56;;;;;;;6.93;0.60;;;3.60;94.00;;;;;;5092942;28;20548;-68
2021/03/25 05:02:23;;;;;;;1.35;0.60;;;3.70;93.80;;;;;;5092561;28;20536;-67
2021/03/25 05:04:53;;;;;;;2.75;0.50;;;3.70;93.80;;;;;;5093073;28;20085;-68
2021/03/25 05:07:25;;;;;;;;;;;3.70;93.80;;;;;;5093242;28;20497;-68
2021/03/25 05:09:52;;;;;;;1.83;0.82;;;3.70;94.50;;;;;;5092561;28;19920;-68
2021/03/25 05:12:18;;;;;;;1.85;0.80;;;3.70;94.00;;;;;;5092700;28;20073;-68
2021/03/25 05:14:47;;;;;;;2.70;1.05;;;3.70;94.00;;;;;;5091907;28;20051;-68
2021/03/25 05:17:49;;;;;;;1.50;0.80;;;3.70;94.00;;;;;;5091677;28;20356;-68
2021/03/25 05:20:41;;;;;;;3.55;0.70;;;3.80;94.10;;;;;;5091560;28;20032;-68
2021/03/25 05:23:25;;;;;;;4.53;0.52;;;3.80;93.70;;;;;;5076003;28;20047;-68
2021/03/25 05:25:54;;;;;;;2.72;0.80;;;3.90;93.40;;;;;;5091412;28;20054;-68
2021/03/25 05:28:48;;;;;;;6.43;0.88;;;3.90;93.20;;;;;;5091133;28;20028;-69
2021/03/25 05:31:15;;;;;;;3.83;0.80;;;3.90;93.20;;;;;;5090422;28;20032;-66
2021/03/25 05:33:47;;;;;;;2.75;1.10;;;3.90;92.90;;;;;;5091299;28;20066;-66
2021/03/25 05:36:14;;;;;;;4.40;0.90;;;4.00;92.90;;;;;;5091401;28;20056;-68
2021/03/25 05:38:40;;;;;;;3.38;1.00;;;3.90;93.00;;;;;;5091502;28;20016;-66
2021/03/25 05:41:06;;;;;;;2.70;0.80;;;4.00;93.90;;;;;;5091239;28;20032;-68
2021/03/25 05:43:47;;;;;;;2.00;0.77;;;4.20;97.90;;;;;;5090658;28;20012;-68
2021/03/25 05:46:33;;;;;;;2.10;0.80;;;4.50;94.30;;;;;;5079091;28;20042;-69
2021/03/25 05:49:14;;;;;;;4.88;0.93;;;4.60;91.80;;;;;;5079052;28;20408;-66
2021/03/25 05:52:16;;;;;;;2.42;0.70;;;4.70;92.00;;;;;;5090473;28;20063;-66
2021/03/25 05:55:15;;;;;;;1.05;0.55;;;4.90;90.80;;;;;;5089289;28;20031;-67
2021/03/25 05:58:18;;;;;;;1.52;0.70;;;5.10;90.40;;;;;;5084678;28;20031;-67
2021/03/25 06:00:55;;;;;;;1.35;0.60;;;5.30;88.70;;;;;;5088285;28;20032;-67
2021/03/25 06:03:23;;;;;;;1.65;0.60;;;5.30;86.80;;;;;;5092043;28;20095;-67
2021/03/25 06:05:52;;;;;;;2.65;0.55;;;5.60;87.30;;;;;;5087407;28;20046;-67
2021/03/25 06:08:23;;;;;;;2.15;0.73;;;5.80;85.80;;;;;;5088087;28;20391;-67
2021/03/25 06:10:55;;;;;;;2.08;0.75;;;6.00;83.60;;;;;;5090497;28;20093;-68
2021/03/25 06:13:43;;;;;;;1.83;0.63;;;6.10;82.50;;;;;;5063608;28;761231;-69
2021/03/25 06:16:35;;;;;;;3.78;0.90;;;6.10;81.60;;;;;;5089985;28;20060;-69
2021/03/25 06:19:19;;;;;;;4.13;0.65;;;6.00;81.70;;;;;;5065245;28;20042;-69
2021/03/25 06:22:13;;;;;;;2.22;0.60;;;6.00;81.40;;;;;;5088610;28;20025;-68
2021/03/25 06:25:02;;;;;;;3.13;0.75;;;6.10;81.10;;;;;;5078899;28;20111;-68
2021/03/25 06:27:36;;;;;;;3.15;0.90;;;6.20;81.10;;;;;;5091678;28;20082;-69
2021/03/25 06:30:12;;;;;;;1.20;0.57;;;6.30;80.60;;;;;;5091216;28;20575;-68
2021/03/25 06:32:50;;;;;;;14.75;1.10;;;7.60;99.90;;;;;;5084539;28;20035;-67
2021/03/25 06:35:23;;;;;;;7.57;0.90;;;8.40;80.80;;;;;;5078393;28;20120;-67
2021/03/25 06:38:03;;;;;;;9.50;1.25;;;8.10;75.90;;;;;;5091814;28;20034;-67
2021/03/25 06:40:39;;;;;;;6.43;1.05;;;7.90;75.70;;;;;;5079063;28;20031;-67
2021/03/25 06:43:32;;;;;;;6.95;0.90;;;7.70;75.80;;;;;;5095615;28;20039;-67
2021/03/25 06:46:21;;;;;;;10.23;1.30;;;7.60;75.00;;;;;;5095531;28;20032;-67
2021/03/25 06:48:54;;;;;;;4.80;0.60;;;7.60;75.00;;;;;;5080941;28;20020;-68
2021/03/25 06:51:26;;;;;;;2.20;0.63;;;7.60;75.30;;;;;;5095485;28;20043;-67
2021/03/25 06:54:17;;;;;;;5.82;0.70;;;7.70;74.60;;;;;;5095157;28;20022;-67
2021/03/25 06:56:44;;;;;;;;;;;7.60;74.00;;;;;;5081049;28;20021;-69
2021/03/25 06:59:19;;;;;;;2.30;0.68;;;8.10;93.30;;;;;;5095002;28;20405;-68
2021/03/25 07:01:50;;;;;;;3.50;0.70;;;8.40;76.50;;;;;;5094860;28;20058;-68
2021/03/25 07:04:23;;;;;;;3.03;0.47;;;8.20;73.60;;;;;;5095195;28;20077;-68
2021/03/25 07:06:50;;;;;;;2.50;1.00;;;8.10;73.60;;;;;;5094748;28;20111;-68
2021/03/25 07:09:22;;;;;;;3.70;1.05;;;8.00;73.60;;;;;;5094861;28;20024;-69
2021/03/25 07:11:48;;;;;;;1.23;0.60;;;7.90;73.60;;;;;;5094988;28;20040;-70
2021/03/25 07:14:19;;;;;;;10.38;0.90;;;7.90;73.50;;;;;;5094335;28;20050;-68
2021/03/25 07:16:47;;;;;;;26.88;1.98;;;8.10;86.20;;;;;;5094942;28;20036;-69
2021/03/25 07:19:21;;;;;;;1.83;0.45;;;8.60;78.80;;;;;;5094763;28;20020;-68
2021/03/25 07:22:14;;;;;;;6.68;0.95;;;8.60;73.20;;;;;;5094710;28;20020;-70
2021/03/25 07:24:41;;;;;;;4.95;0.70;;;8.40;72.50;;;;;;5081682;28;20110;-72
2021/03/25 07:27:14;;;;;;;2.15;0.52;;;8.20;73.70;;;;;;5090786;28;20060;-80
2021/03/25 07:29:43;;;;;;;3.97;0.93;;;8.10;72.60;;;;;;5094174;28;20024;-75
2021/03/25 07:32:09;;;;;;;2.88;0.75;;;8.10;75.40;;;;;;5094803;28;20112;-73
2021/03/25 07:34:43;;;;;;;3.10;0.57;;;8.20;74.70;;;;;;5094425;28;20110;-68
2021/03/25 07:37:13;;;;;;;7.25;0.70;;;8.10;73.40;;;;;;5093921;28;20032;-68
2021/03/25 07:39:50;;;;;;;1.85;0.70;;;8.10;76.70;;;;;;5093591;28;20020;-68
2021/03/25 07:42:32;;;;;;;2.42;0.93;;;8.40;74.70;;;;;;5094038;28;20079;-68
2021/03/25 07:45:19;;;;;;;6.20;0.45;;;8.20;72.50;;;;;;5094225;28;20402;-70
2021/03/25 07:47:45;;;;;;;2.45;0.60;;;8.00;72.40;;;;;;5094155;28;20028;-69
2021/03/25 07:50:26;;;;;;;4.63;0.80;;;7.90;72.30;;;;;;5094356;28;20082;-70
2021/03/25 07:52:52;;;;;;;;;;;7.70;72.70;;;;;;5093767;28;20418;-69
2021/03/25 07:55:27;;;;;;;3.55;0.50;;;7.60;72.40;;;;;;5094558;28;19904;-74
2021/03/25 07:57:55;;;;;;;1.65;0.40;;;7.50;73.50;;;;;;5109759;28;20093;-78
2021/03/25 08:00:32;;;;;;;4.25;0.63;;;7.30;73.70;;;;;;5080008;28;20359;-70
2021/03/25 08:03:15;;;;;;;1.85;0.55;;;7.30;74.10;;;;;;5094183;28;20028;-70
2021/03/25 08:05:42;;;;;;;1.63;0.50;;;7.30;74.10;;;;;;5093587;28;20077;-73
2021/03/25 08:08:19;;;;;;;2.90;0.75;;;7.30;74.20;;;;;;5094015;28;20023;-74
2021/03/25 08:10:47;;;;;;;3.97;0.70;;;7.30;74.10;;;;;;5093420;28;20505;-71
2021/03/25 08:13:28;;;;;;;2.75;0.60;;;7.30;74.10;;;;;;5094048;28;20050;-73
2021/03/25 08:16:09;;;;;;;9.15;0.70;;;7.30;74.00;;;;;;5093123;28;20044;-72
2021/03/25 08:19:18;;;;;;;1.30;0.50;;;7.20;74.10;;;;;;5093018;28;20107;-72
2021/03/25 08:22:02;;;;;;;10.93;0.95;;;7.20;74.20;;;;;;5090734;28;20032;-77
2021/03/25 08:24:39;;;;;;;0.57;0.43;;;7.20;78.90;;;;;;5092713;28;20024;-77
2021/03/25 08:27:25;;;;;;;5.05;0.80;;;7.40;76.70;;;;;;5093488;28;20371;-75
2021/03/25 08:30:38;;;;;;;7.65;0.60;;;7.50;77.50;;;;;;5093180;28;20043;-75
2021/03/25 08:33:22;;;;;;;3.00;0.68;;;7.50;89.10;;;;;;5093345;28;20471;-75
2021/03/25 08:36:02;;;;;;;6.35;0.70;;;9.20;83.20;;;;;;5093360;28;20089;-74
2021/03/25 08:39:01;;;;;;;4.03;0.60;;;9.20;75.60;;;;;;5092191;28;20115;-78
2021/03/25 08:41:31;;;;;;;4.65;0.70;;;8.70;73.70;;;;;;5092943;28;20070;-77
2021/03/25 08:44:28;;;;;;;2.00;0.57;;;8.20;72.70;;;;;;5092617;28;20048;-79
2021/03/25 08:47:07;;;;;;;5.75;1.33;;;8.00;74.40;;;;;;5090445;28;20028;-81
2021/03/25 08:50:17;;;;;;;3.97;0.63;;;7.80;74.40;;;;;;5089999;28;20020;-82
2021/03/25 08:52:43;;;;;;;5.60;0.83;;;7.70;74.20;;;;;;5027258;28;20407;-82
2021/03/25 08:55:28;;;;;;;1.45;0.50;;;7.60;73.90;;;;;;5089338;28;20024;-83
2021/03/25 08:58:12;;;;;;;3.65;0.52;;;7.60;74.70;;;;;;5089568;28;20597;-79
2021/03/25 09:00:41;;;;;;;3.95;0.90;;;7.50;74.00;;;;;;5088844;28;20019;-79
2021/03/25 09:03:29;;;;;;;3.30;0.77;;;7.50;73.90;;;;;;5092293;28;20034;-78
2021/03/25 09:06:04;;;;;;;2.53;0.60;;;7.50;73.60;;;;;;5086621;28;20021;-78
2021/03/25 09:08:33;;;;;;;0.95;0.50;;;7.50;73.30;;;;;;5108024;28;20031;-81
2021/03/25 09:11:02;;;;;;;5.28;0.50;;;7.40;73.30;;;;;;5092885;28;20040;-72
2021/03/25 09:13:31;;;;;;;2.72;0.50;;;7.40;73.10;;;;;;5092352;28;20499;-75
2021/03/25 09:16:06;;;;;;;2.42;0.60;;;7.50;73.60;;;;;;5092275;28;20044;-75
2021/03/25 09:18:31;;;;;;;3.97;0.60;;;7.50;73.30;;;;;;5084773;28;20069;-77
2021/03/25 09:21:11;;;;;;;1.38;0.50;;;7.60;72.70;;;;;;5088457;28;20024;-75
2021/03/25 09:23:46;;;;;;;1.00;0.60;;;7.60;72.00;;;;;;5088829;28;20016;-75
2021/03/25 09:26:12;;;;;;;1.27;0.50;;;7.50;71.90;;;;;;5091647;28;20024;-75
2021/03/25 09:29:08;;;;;;;2.35;0.47;;;7.60;71.90;;;;;;5092155;28;20020;-71
2021/03/25 09:31:37;;;;;;;0.95;0.50;;;7.80;72.40;;;;;;5091487;28;20028;-74
2021/03/25 09:34:12;;;;;;;1.08;0.60;;;7.80;71.00;;;;;;5083873;28;20025;-71
2021/03/25 09:36:45;;;;;;;0.75;0.50;;;7.90;71.30;;;;;;5089684;28;20028;-72
2021/03/25 09:39:22;;;;;;;1.48;0.60;;;7.70;70.60;;;;;;5091509;28;20048;-73
2021/03/25 09:41:49;;;;;;;1.58;0.40;;;7.70;71.10;;;;;;5091212;28;20027;-75
2021/03/25 09:44:27;;;;;;;3.70;0.52;;;7.70;70.80;;;;;;5090731;28;20024;-74
2021/03/25 09:46:58;;;;;;;2.42;0.70;;;7.70;70.50;;;;;;5090982;28;20012;-75
2021/03/25 09:49:30;;;;;;;4.18;0.80;;;7.70;70.40;;;;;;5088629;28;20107;-75
2021/03/25 09:52:12;;;;;;;2.20;0.50;;;7.70;71.00;;;;;;5084002;28;20081;-76
2021/03/25 09:54:39;;;;;;;2.03;0.60;;;7.60;69.90;;;;;;5087638;28;20024;-74
2021/03/25 09:57:30;;;;;;;1.38;0.60;;;7.70;69.60;;;;;;5086769;28;20124;-73
2021/03/25 10:00:00;;;;;;;1.58;0.93;;;7.70;69.30;;;;;;5081649;28;20099;-73
2021/03/25 10:02:40;;;;;;;2.55;0.60;;;7.70;69.60;;;;;;5076783;28;20033;-72
2021/03/25 10:05:24;;;;;;;1.02;0.35;;;7.60;68.70;;;;;;5091306;28;20395;-73
2021/03/25 10:08:14;;;;;;;0.75;0.52;;;7.60;68.20;;;;;;5089682;28;20539;-72
2021/03/25 10:10:52;;;;;;;0.65;0.50;;;7.60;68.40;;;;;;5089552;28;20048;-71
2021/03/25 10:13:29;;;;;;;2.50;0.55;;;7.50;68.30;;;;;;5091596;28;20034;-72
2021/03/25 10:16:31;;;;;;;2.92;0.70;;;7.60;68.40;;;;;;5090806;28;20048;-71
2021/03/25 10:18:59;;;;;;;2.28;0.57;;;7.60;68.60;;;;;;5100790;28;20016;-72
2021/03/25 10:22:01;;;;;;;1.15;0.50;;;7.70;68.30;;;;;;5107361;28;20475;-73
2021/03/25 10:24:34;;;;;;;1.45;0.47;;;7.70;67.60;;;;;;4989256;28;20029;-72
2021/03/25 10:27:15;;;;;;;3.08;0.60;;;7.80;67.60;;;;;;5081218;28;20036;-73
2021/03/25 10:29:41;;;;;;;;;;;7.90;68.00;;;;;;5091724;28;20056;-72
2021/03/25 10:32:23;;;;;;;2.75;0.70;;;7.90;66.60;;;;;;5091477;28;19955;-73
2021/03/25 10:34:55;;;;;;;6.35;0.75;;;7.80;66.90;;;;;;5091413;28;20020;-73
2021/03/25 10:37:33;;;;;;;2.67;0.50;;;7.80;67.50;;;;;;5091517;28;20111;-73
2021/03/25 10:40:07;;;;;;;10.18;0.70;;;7.90;68.40;;;;;;5089133;28;20024;-73
2021/03/25 10:42:37;;;;;;;1.13;0.55;;;7.90;67.20;;;;;;5088472;28;20484;-74
2021/03/25 10:45:17;;;;;;;1.58;0.75;;;7.90;66.70;;;;;;5090780;28;20028;-74
2021/03/25 10:48:29;;;;;;;4.47;1.65;;;8.00;67.70;;;;;;5091354;28;20784;-74
2021/03/25 10:51:01;;;;;;;3.72;2.33;;;8.10;66.90;;;;;;5065273;28;20040;-75
2021/03/25 10:53:33;;;;;;;2.40;1.40;;;8.00;66.70;;;;;;5090960;28;20567;-75
2021/03/25 10:56:06;;;;;;;4.05;0.70;;;8.10;67.10;;;;;;5091386;28;20077;-73
2021/03/25 10:58:37;;;;;;;4.85;1.00;;;8.10;66.80;;;;;;5091134;28;20024;-73
2021/03/25 11:01:22;;;;;;;2.72;0.60;;;8.10;66.70;;;;;;5091512;28;20126;-72
2021/03/25 11:03:49;;;;;;;5.47;2.10;;;8.20;66.80;;;;;;5091030;28;20514;-73
2021/03/25 11:06:36;;;;;;;1.88;1.20;;;8.20;66.90;;;;;;5090914;28;20064;-75
2021/03/25 11:09:17;;;;;;;4.32;1.77;;;8.30;66.60;;;;;;5090968;28;20020;-75
2021/03/25 11:11:44;;;;;;;2.58;1.35;;;8.40;66.80;;;;;;5083866;28;20036;-75
2021/03/25 11:14:40;;;;;;;2.55;0.70;;;8.40;66.50;;;;;;5090840;28;20040;-75
2021/03/25 11:17:14;;;;;;;1.55;0.40;;;8.50;65.70;;;;;;5089524;28;20039;-75
2021/03/25 11:19:41;;;;;;;3.38;0.80;;;8.40;65.70;;;;;;5090824;28;20558;-75
2021/03/25 11:22:11;;;;;;;4.55;1.67;;;8.50;65.90;;;;;;5090879;28;20077;-75
2021/03/25 11:24:38;;;;;;;5.25;2.78;;;8.50;66.10;;;;;;5090964;28;20028;-75
2021/03/25 11:27:11;;;;;;;4.75;1.65;;;8.50;66.00;;;;;;5090909;28;20036;-72
2021/03/25 11:29:40;;;;;;;3.60;1.10;;;8.60;66.30;;;;;;5093582;28;20039;-75
2021/03/25 11:32:25;;;;;;;3.75;0.93;;;8.60;65.60;;;;;;5086037;28;20411;-73
2021/03/25 11:34:54;;;;;;;2.55;1.15;;;8.60;65.40;;;;;;5091458;28;20026;-73
2021/03/25 11:37:31;;;;;;;3.75;1.05;;;8.60;65.40;;;;;;5094448;28;20028;-74
2021/03/25 11:40:13;;;;;;;5.18;0.65;;;8.70;65.50;;;;;;5094219;28;20016;-72
2021/03/25 11:42:41;;;;;;;1.67;0.60;;;8.70;65.30;;;;;;5087320;28;20085;-73
2021/03/25 11:45:35;;;;;;;6.50;1.25;;;8.70;65.00;;;;;;5091959;28;20471;-73
2021/03/25 11:48:01;;;;;;;1.70;0.60;;;8.70;65.10;;;;;;5087646;28;20024;-73
2021/03/25 11:50:26;;;;;;;2.55;0.60;;;8.60;64.80;;;;;;5093853;28;20100;-73
2021/03/25 11:52:55;;;;;;;3.45;0.93;;;8.60;65.40;;;;;;5094307;28;20495;-73
2021/03/25 11:55:26;;;;;;;9.10;1.70;;;8.70;64.80;;;;;;5075731;28;20016;-74
2021/03/25 11:57:52;;;;;;;;;;;8.70;64.80;;;;;;5094610;28;20028;-74
2021/03/25 12:00:21;;;;;;;3.88;1.00;;;8.70;64.50;;;;;;5093844;28;20359;-73
2021/03/25 12:02:47;;;;;;;4.45;1.27;;;8.80;64.90;;;;;;5093993;28;20020;-74
2021/03/25 12:05:28;;;;;;;5.47;0.90;;;8.80;64.80;;;;;;5093811;28;20028;-73
2021/03/25 12:08:12;;;;;;;4.78;0.60;;;8.80;65.00;;;;;;5094016;28;20020;-73
2021/03/25 12:10:37;;;;;;;1.70;0.75;;;8.80;64.90;;;;;;5093775;28;20051;-73
2021/03/25 12:13:03;;;;;;;3.42;0.40;;;8.80;65.00;;;;;;5093556;28;20395;-74
2021/03/25 12:15:29;;;;;;;1.98;0.57;;;8.90;65.20;;;;;;5093309;28;20109;-74
2021/03/25 12:18:06;;;;;;;1.55;0.40;;;8.90;65.30;;;;;;5093300;28;20027;-74
2021/03/25 12:20:40;;;;;;;0.82;0.40;;;8.90;64.60;;;;;;5093497;28;20080;-73
2021/03/25 12:23:22;;;;;;;1.20;0.40;;;8.90;64.60;;;;;;5093145;28;20444;-73
2021/03/25 12:25:50;;;;;;;0.60;0.50;;;9.00;64.40;;;;;;5093377;28;20016;-73
2021/03/25 12:28:16;;;;;;;1.92;0.50;;;9.00;64.30;;;;;;5093303;28;20031;-73
2021/03/25 12:30:43;;;;;;;2.10;0.50;;;9.00;64.30;;;;;;5093079;28;20036;-73
2021/03/25 12:33:20;;;;;;;1.35;0.60;;;8.90;63.50;;;;;;5093104;28;20024;-74
2021/03/25 12:35:46;;;;;;;6.85;0.50;;;9.00;63.80;;;;;;5093048;28;20028;-76
2021/03/25 12:38:12;;;;;;;2.53;0.60;;;9.00;63.20;;;;;;5092974;28;20119;-75
2021/03/25 12:40:38;;;;;;;0.55;0.40;;;9.00;62.90;;;;;;5092498;28;20136;-75
2021/03/25 12:43:04;;;;;;;1.02;0.45;;;8.80;61.80;;;;;;5093177;28;20031;-75
2021/03/25 12:45:40;;;;;;;2.88;0.40;;;8.70;61.80;;;;;;5093114;28;20032;-75
2021/03/25 12:48:07;;;;;;;1.10;0.40;;;8.70;62.10;;;;;;5092874;28;20365;-75
2021/03/25 12:50:33;;;;;;;0.95;0.60;;;8.60;62.20;;;;;;5092699;28;20043;-75
2021/03/25 12:53:00;;;;;;;1.58;0.50;;;8.60;62.40;;;;;;5093167;28;20387;-76
2021/03/25 12:55:26;;;;;;;0.57;0.40;;;8.70;63.80;;;;;;5092776;28;20019;-76
2021/03/25 12:57:54;;;;;;;0.57;0.40;;;8.80;62.70;;;;;;5092488;28;20039;-72
2021/03/25 13:00:36;;;;;;;1.00;0.45;;;8.80;62.50;;;;;;5092865;28;20102;-71
2021/03/25 13:03:03;;;;;;;0.40;0.40;;;8.80;62.40;;;;;;5092883;28;20016;-72
2021/03/25 13:05:29;;;;;;;2.58;0.55;;;8.70;62.10;;;;;;5092673;28;20039;-71
2021/03/25 13:07:54;;;;;;;6.03;0.93;;;8.60;62.50;;;;;;5092186;28;20024;-73
2021/03/25 13:10:23;;;;;;;3.50;0.60;;;8.70;63.00;;;;;;5092475;28;20040;-75
2021/03/25 13:12:49;;;;;;;2.45;0.50;;;8.70;63.10;;;;;;5092609;28;20028;-75
2021/03/25 13:15:16;;;;;;;3.10;0.43;;;8.70;63.10;;;;;;5092251;28;20039;-75
2021/03/25 13:17:42;;;;;;;1.42;0.50;;;8.70;63.30;;;;;;5081293;28;20521;-75
2021/03/25 13:20:09;;;;;;;6.30;0.50;;;8.70;63.70;;;;;;5089520;28;20103;-73
2021/03/25 13:22:36;;;;;;;0.95;0.40;;;9.20;70.80;;;;;;5087729;28;20044;-73
2021/03/25 13:25:02;;;;;;;1.20;0.60;;;9.50;64.40;;;;;;5086253;28;20028;-79
2021/03/25 13:27:28;;;;;;;0.80;0.40;;;9.40;63.00;;;;;;5092356;28;20032;-74
2021/03/25 13:29:54;;;;;;;4.50;0.50;;;9.30;66.30;;;;;;5092100;28;20077;-75
2021/03/25 13:32:20;;;;;;;1.00;0.40;;;9.30;63.40;;;;;;5092630;28;20044;-75
2021/03/25 13:34:45;;;;;;;1.08;0.50;;;9.20;62.70;;;;;;5092460;28;20471;-74
2021/03/25 13:37:11;;;;;;;0.65;0.30;;;9.10;63.00;;;;;;5092500;28;20036;-76
2021/03/25 13:39:37;;;;;;;0.32;0.30;;;9.10;63.30;;;;;;5092043;28;20020;-75
2021/03/25 13:42:03;;;;;;;0.65;0.38;;;9.10;61.80;;;;;;5092229;28;20020;-75
2021/03/25 13:44:29;;;;;;;0.30;0.30;;;9.00;60.40;;;;;;5092224;28;20463;-75
2021/03/25 13:46:55;;;;;;;1.00;0.50;;;8.90;60.10;;;;;;5091810;28;20027;-76
2021/03/25 13:49:20;;;;;;;3.88;0.40;;;9.10;62.70;;;;;;5087588;28;20035;-76
2021/03/25 13:51:46;;;;;;;2.92;0.70;;;9.10;59.90;;;;;;5087189;28;20068;-69
2021/03/25 13:54:12;;;;;;;0.50;0.40;;;9.80;71.20;;;;;;5091987;28;20032;-76
2021/03/25 13:56:38;;;;;;;2.20;0.40;;;10.40;62.50;;;;;;5091809;28;20519;-76
2021/03/25 13:59:04;;;;;;;0.82;0.40;;;10.00;59.70;;;;;;5091815;28;20491;-76
2021/03/25 14:01:30;;;;;;;0.40;0.40;;;9.70;60.00;;;;;;5084280;28;20035;-73
2021/03/25 14:03:56;;;;;;;0.85;0.40;;;9.40;60.20;;;;;;5091610;28;20095;-72
2021/03/25 14:06:22;;;;;;;1.40;0.60;;;9.40;60.70;;;;;;5091457;28;20095;-74
2021/03/25 14:08:47;;;;;;;0.60;0.47;;;9.30;60.50;;;;;;5091263;28;20020;-71
2021/03/25 14:11:13;;;;;;;1.42;0.50;;;9.30;60.40;;;;;;5091494;28;20074;-73
2021/03/25 14:13:39;;;;;;;2.53;0.43;;;9.30;60.10;;;;;;5091205;28;20016;-72
2021/03/25 14:16:06;;;;;;;1.75;0.40;;;9.30;60.00;;;;;;5091276;28;20101;-73
2021/03/25 14:18:31;;;;;;;3.17;0.82;;;9.20;60.50;;;;;;5091784;28;20023;-72
2021/03/25 14:20:58;;;;;;;3.92;0.40;;;9.20;61.70;;;;;;5090898;28;20690;-72
2021/03/25 14:23:25;;;;;;;2.92;0.40;;;9.10;61.80;;;;;;5088663;28;20028;-73
2021/03/25 14:25:53;;;;;;;4.68;0.70;;;9.00;62.60;;;;;;5091242;28;20090;-77
2021/03/25 14:28:22;;;;;;;2.15;0.50;;;8.90;63.00;;;;;;5091311;28;20099;-77
2021/03/25 14:30:49;;;;;;;0.65;0.30;;;9.00;63.70;;;;;;5091216;28;20032;-78
2021/03/25 14:33:15;;;;;;;2.85;0.50;;;8.90;63.50;;;;;;5091406;28;20019;-77
2021/03/25 14:35:43;;;;;;;0.82;0.40;;;8.80;64.10;;;;;;5073257;28;20487;-77
2021/03/25 14:38:11;;;;;;;0.88;0.32;;;8.80;63.90;;;;;;5091593;28;20028;-77
2021/03/25 14:40:37;;;;;;;0.98;0.50;;;8.80;64.00;;;;;;5091646;28;20032;-76
2021/03/25 14:43:04;;;;;;;2.13;0.60;;;8.70;64.80;;;;;;5091159;28;20020;-76
2021/03/25 14:45:33;;;;;;;1.10;0.30;;;8.70;64.30;;;;;;5091321;28;20024;-76
2021/03/25 14:47:58;;;;;;;4.25;0.60;;;8.60;64.30;;;;;;5091143;28;20581;-76
2021/03/25 14:50:25;;;;;;;2.85;0.52;;;8.50;64.30;;;;;;5091246;28;20059;-76
2021/03/25 14:52:51;;;;;;;3.65;0.50;;;8.50;64.60;;;;;;5091096;28;20039;-75
2021/03/25 14:55:19;;;;;;;0.65;0.45;;;8.50;65.00;;;;;;5091532;28;20432;-75
2021/03/25 14:57:44;;;;;;;1.95;0.30;;;8.50;64.90;;;;;;5091524;28;20024;-75
2021/03/25 15:00:14;;;;;;;0.68;0.40;;;8.40;64.80;;;;;;5091268;28;20386;-75
2021/03/25 15:02:40;;;;;;;0.63;0.43;;;8.40;64.90;;;;;;5084064;28;20579;-77
2021/03/25 15:05:07;;;;;;;2.80;0.45;;;8.40;65.10;;;;;;5091516;28;20119;-77
2021/03/25 15:07:33;;;;;;;3.13;0.60;;;8.40;65.00;;;;;;5095172;28;20024;-77
2021/03/25 15:09:59;;;;;;;1.77;0.52;;;8.40;64.80;;;;;;5092624;28;20047;-77
2021/03/25 15:12:24;;;;;;;0.57;0.50;;;8.30;65.00;;;;;;5093784;28;20035;-76
2021/03/25 15:14:50;;;;;;;1.13;0.43;;;8.40;64.90;;;;;;5094290;28;20080;-81
2021/03/25 15:17:17;;;;;;;3.58;0.40;;;8.40;64.90;;;;;;5095027;28;20107;-81
2021/03/25 15:19:42;;;;;;;2.92;0.35;;;8.40;64.80;;;;;;5094654;28;20043;-82
2021/03/25 15:22:08;;;;;;;1.55;0.47;;;8.30;64.60;;;;;;5094135;28;20428;-82
2021/03/25 15:24:34;;;;;;;4.25;0.65;;;8.30;64.70;;;;;;5094486;28;20016;-81
2021/03/25 15:27:00;;;;;;;2.85;0.40;;;8.30;65.10;;;;;;5094322;28;20125;-81
2021/03/25 15:29:25;;;;;;;0.40;0.40;;;8.30;65.10;;;;;;5094548;28;20107;-81
2021/03/25 15:31:54;;;;;;;3.83;0.50;;;8.30;64.90;;;;;;5094477;28;20368;-82
2021/03/25 15:34:20;;;;;;;1.08;0.30;;;8.30;64.80;;;;;;5094282;28;20028;-80
2021/03/25 15:36:46;;;;;;;1.15;0.40;;;8.20;64.70;;;;;;5095050;28;20368;-84
2021/03/25 15:39:12;;;;;;;0.40;0.35;;;8.30;64.90;;;;;;5094277;28;20114;-78
2021/03/25 15:41:38;;;;;;;0.40;0.40;;;8.20;64.70;;;;;;5093842;28;20012;-78
2021/03/25 15:44:09;;;;;;;0.85;0.40;;;8.10;64.80;;;;;;5093878;28;20126;-78
2021/03/25 15:46:36;;;;;;;3.63;0.80;;;8.10;64.80;;;;;;5094060;28;20554;-77
2021/03/25 15:49:02;;;;;;;2.35;0.50;;;8.10;65.00;;;;;;5093727;28;20479;-77
2021/03/25 15:51:29;;;;;;;1.20;0.50;;;8.20;65.40;;;;;;5093818;28;20043;-78
2021/03/25 15:53:56;;;;;;;2.45;0.50;;;8.20;65.00;;;;;;5091993;28;20016;-79
2021/03/25 15:56:24;;;;;;;3.15;0.50;;;8.20;65.10;;;;;;5093926;28;20382;-86
2021/03/25 15:58:49;;;;;;;3.35;0.50;;;8.10;65.00;;;;;;5095160;28;20058;-86
2021/03/25 16:01:15;;;;;;;2.50;0.50;;;8.10;65.40;;;;;;5094661;28;20063;-85
2021/03/25 16:03:41;;;;;;;2.92;0.60;;;8.10;65.50;;;;;;5093918;28;20024;-85
2021/03/25 16:06:09;;;;;;;0.38;0.30;;;8.10;65.50;;;;;;5093516;28;20055;-85
2021/03/25 16:08:34;;;;;;;5.63;0.47;;;8.00;65.80;;;;;;5094198;28;20023;-81
2021/03/25 16:11:00;;;;;;;1.55;0.52;;;8.00;65.90;;;;;;5093764;28;20384;-84
2021/03/25 16:13:26;;;;;;;1.95;0.60;;;8.10;68.70;;;;;;5093873;28;20024;-84
2021/03/25 16:15:53;;;;;;;4.15;0.60;;;8.20;67.00;;;;;;5093352;28;20551;-87
2021/03/25 16:18:20;;;;;;;4.10;0.60;;;8.10;66.40;;;;;;5093538;28;20027;-79
2021/03/25 16:20:49;;;;;;;3.58;0.40;;;8.10;66.90;;;;;;5093502;28;20046;-79
2021/03/25 16:23:20;;;;;;;3.33;0.50;;;8.00;66.40;;;;;;5093633;28;20020;-78
2021/03/25 16:25:46;;;;;;;2.38;0.60;;;8.00;66.80;;;;;;5093708;28;20020;-80
2021/03/25 16:28:12;;;;;;;1.80;0.70;;;8.90;79.40;;;;;;5093175;28;20487;-79
2021/03/25 16:30:40;;;;;;;4.80;1.27;;;9.10;68.80;;;;;;5093658;28;20040;-80
2021/03/25 16:33:07;;;;;;;23.95;1.08;;;8.90;66.80;;;;;;5093410;28;20031;-77
2021/03/25 16:35:36;;;;;;;24.80;1.60;;;8.60;66.80;;;;;;5093704;28;20042;-78
2021/03/25 16:38:04;;;;;;;57.00;3.20;;;8.30;67.60;;;;;;5085231;28;20032;-79
2021/03/25 16:40:30;;;;;;;48.70;2.92;;;8.20;68.00;;;;;;5089624;28;20055;-79
2021/03/25 16:42:58;;;;;;;77.15;5.63;;;8.00;68.40;;;;;;5091904;28;20028;-80
2021/03/25 16:45:29;;;;;;;66.68;2.90;;;7.90;68.70;;;;;;5092619;28;20028;-79
2021/03/25 16:47:55;;;;;;;44.95;2.00;;;7.80;70.20;;;;;;5092374;28;20016;-85
2021/03/25 16:50:22;;;;;;;22.92;1.30;;;7.70;70.00;;;;;;5092758;28;20510;-86
2021/03/25 16:52:49;;;;;;;22.73;1.38;;;7.60;70.50;;;;;;5090969;28;20077;-86
2021/03/25 16:55:15;;;;;;;19.10;1.70;;;7.50;70.80;;;;;;5090703;28;20103;-73
2021/03/25 16:57:41;;;;;;;22.00;1.20;;;7.40;71.30;;;;;;5092312;28;20052;-83
2021/03/25 17:00:09;;;;;;;17.65;1.30;;;7.30;71.90;;;;;;5092827;28;20058;-80
2021/03/25 17:02:35;;;;;;;12.45;1.00;;;7.20;72.20;;;;;;5074602;28;20028;-79
2021/03/25 17:05:01;;;;;;;17.27;1.02;;;7.10;72.50;;;;;;5092298;28;20471;-79
2021/03/25 17:07:27;;;;;;;37.22;1.70;;;7.00;72.60;;;;;;5092625;28;20963;-81
2021/03/25 17:09:53;;;;;;;26.85;1.10;;;6.90;73.10;;;;;;5092251;28;20463;-81
2021/03/25 17:12:18;;;;;;;36.17;1.80;;;6.80;73.20;;;;;;5092270;28;20035;-81
2021/03/25 17:14:44;;;;;;;40.63;1.92;;;6.70;73.70;;;;;;5091819;28;20137;-81
2021/03/25 17:17:10;;;;;;;14.07;1.30;;;6.60;74.00;;;;;;5092058;28;20028;-78
2021/03/25 17:19:35;;;;;;;19.10;1.13;;;6.60;74.30;;;;;;5092671;28;20016;-80
2021/03/25 17:22:02;;;;;;;21.48;2.25;;;6.50;74.60;;;;;;5092338;28;20051;-77
2021/03/25 17:24:27;;;;;;;11.68;0.73;;;6.50;74.70;;;;;;5092425;28;20024;-77
2021/03/25 17:26:53;;;;;;;11.43;0.60;;;6.30;74.70;;;;;;5092293;28;20106;-77
2021/03/25 17:29:20;;;;;;;2.72;0.63;;;6.20;75.00;;;;;;5092076;28;20554;-77
2021/03/25 17:31:48;;;;;;;19.60;0.73;;;6.10;75.60;;;;;;5094146;28;20119;-73
2021/03/25 17:34:14;;;;;;;4.85;0.60;;;6.00;76.00;;;;;;5092194;28;20038;-78
2021/03/25 17:36:40;;;;;;;5.80;0.77;;;5.90;76.20;;;;;;5091859;28;20071;-79
2021/03/25 17:39:06;;;;;;;2.60;0.50;;;5.90;76.50;;;;;;5091711;28;20047;-79